Terminal Aerodrome Forecast
Issued by NWS Amarillo, TX

Home | Current Version | Previous Version | Text Only | Print | Product List | Glossary On
Versions: 1 2 3 4 5 6 7 8 9 10 11 12 13 14 15 16 17 18 19
106
FTUS44 KAMA 072024 AAC
TAFAMA
TAF AMD
KAMA 072024Z 0720/0818 01016G25KT P6SM SCT025
      TEMPO 0720/0722 BKN025
     FM072200 02014G23KT P6SM SCT025 BKN050
     FM080200 02016KT P6SM OVC010=

USA.gov is the U.S. government's official web portal to all federal, state and local government web resources and services.